Corpus Christi Nas/Truax Field Information

FAA: NGP - ICAO: KNGP

Corpus Christi Nas/Truax Field (Airport) Location

State Texas
County Nueces
City Corpus Christi
Corpus Christi Nas/Truax Field (Airport) is 6 miles southeast of Corpus Christi, TX.
Latitude 27-41-33.7220N
Longitude 097-17-25.3580W
Elevation 18ft

Corpus Christi Nas/Truax Field METARs

METAR KNGP 211556Z 35014KT 10SM SCT044 OVC060 04/M05 A3043 RMK AO2 SLP305 T00441050 PNO $
Altimeter 30.43"
Temperature 4.4°C (39.9°F)
Wind 350° at 14KT
Clouds scattered at 4,400ft overcast at 6,000ft
Visibility 10.0mi
Time observed: 2022-01-21T15:56:00Z

Corpus Christi Nas/Truax Field (Airport) Details

Status Operational
Activation July 1943
Ownership Military - Navy
Usage Private
Chart BROWNSVILLE
ATC on-site Yes
Beacon schedule sunset-sunrise
Beacon color split clear green

Corpus Christi Nas/Truax Field (Airport) Contacts

Owner US NAVY
Owner address OCEANOGRAPHIC OFC-CODE 3142, WASHINGTON, DC 20373
Owner phone N/A
Manager GERRY SHORE
Manager address PO BOX 479, INEZ, TX 77968
Manager phone 361-676-0209

Corpus Christi Nas/Truax Field Radio Frequencies

Corpus Christi Nas/Truax Field (Airport) Radio Frequencies

UNICOM N/A
Common traffic advisory frequency (CTAF) 134.85